Time;durP1;ratioP1;P1;durP2;ratioP2;P2;SDS_P1;SDS_P2;PMS_P1;PMS_P2;Temp;Humidity;BMP_temperature;BMP_pressure;BME280_temperature;BME280_humidity;BME280_pressure;Samples;Min_cycle;Max_cycle;Signal;HPM_P1;HPM_P2
2022/07/05 00:00:43;;;;;;;6.13;4.65;;;;;;;14.05;95.84;101964.38;5242007;28;20033;-72
2022/07/05 00:03:15;;;;;;;6.10;4.30;;;;;;;14.11;96.58;101955.00;5243441;28;20032;-71
2022/07/05 00:05:46;;;;;;;8.65;4.75;;;;;;;13.92;95.09;101961.75;5246873;28;20040;-71
2022/07/05 00:08:18;;;;;;;8.52;4.97;;;;;;;13.88;95.00;101956.69;5245751;28;20479;-71
2022/07/05 00:10:49;;;;;;;8.88;5.28;;;;;;;14.01;96.76;101959.34;5246024;28;20115;-71
2022/07/05 00:13:21;;;;;;;7.57;5.00;;;;;;;13.82;96.67;101947.28;5243431;28;20100;-71
2022/07/05 00:15:52;;;;;;;7.18;5.40;;;;;;;13.77;95.56;101944.09;5242343;28;20020;-71
2022/07/05 00:18:23;;;;;;;6.90;5.35;;;;;;;13.78;97.57;101943.09;5241673;28;20399;-71
2022/07/05 00:20:55;;;;;;;8.18;5.40;;;;;;;13.71;97.15;101941.81;5253492;28;20386;-71
2022/07/05 00:23:26;;;;;;;6.93;5.40;;;;;;;13.60;97.08;101947.97;5240467;28;20495;-71
2022/07/05 00:25:57;;;;;;;7.55;5.63;;;;;;;13.63;98.66;101942.38;5250158;28;20109;-71
2022/07/05 00:28:29;;;;;;;8.75;6.10;;;;;;;13.59;99.05;101942.72;5243072;28;20075;-71
2022/07/05 00:31:00;;;;;;;9.32;5.88;;;;;;;13.50;98.27;101938.84;5246484;28;20025;-71
2022/07/05 00:33:31;;;;;;;7.43;5.80;;;;;;;13.48;98.56;101947.03;5239278;28;20294;-71
2022/07/05 00:36:03;;;;;;;7.43;5.90;;;;;;;13.44;99.13;101945.53;5250595;28;20025;-71
2022/07/05 00:38:34;;;;;;;7.97;6.00;;;;;;;13.38;99.50;101943.28;5245722;28;20032;-71
2022/07/05 00:41:05;;;;;;;7.68;6.20;;;;;;;13.36;99.88;101945.19;5250290;28;20541;-71
2022/07/05 00:43:37;;;;;;;8.10;6.28;;;;;;;13.32;100.00;101938.34;5243440;28;20491;-71
2022/07/05 00:46:08;;;;;;;6.63;6.00;;;;;;;13.26;99.58;101939.59;5236847;28;20545;-71
2022/07/05 00:48:39;;;;;;;7.68;6.43;;;;;;;13.25;100.00;101931.66;5245182;28;20032;-72
2022/07/05 00:51:11;;;;;;;11.20;6.63;;;;;;;13.23;100.00;101937.16;5244145;28;20024;-71
2022/07/05 00:53:43;;;;;;;7.85;6.07;;;;;;;13.23;100.00;101937.16;5251014;28;20033;-71
2022/07/05 00:56:15;;;;;;;9.10;6.50;;;;;;;13.21;100.00;101940.91;5243495;28;20411;-71
2022/07/05 00:58:46;;;;;;;7.90;6.10;;;;;;;13.28;100.00;101937.69;5248609;28;20048;-71
2022/07/05 01:01:18;;;;;;;8.10;6.03;;;;;;;13.11;100.00;101943.38;5251811;28;20112;-72
2022/07/05 01:03:49;;;;;;;8.95;6.45;;;;;;;13.12;100.00;101945.94;5249182;28;20043;-71
2022/07/05 01:06:21;;;;;;;7.75;6.15;;;;;;;13.13;100.00;101939.63;5242112;28;20448;-71
2022/07/05 01:08:52;;;;;;;8.15;5.75;;;;;;;12.99;100.00;101947.75;5248802;28;20105;-71
2022/07/05 01:11:23;;;;;;;7.43;5.72;;;;;;;12.95;100.00;101948.94;5245891;28;20025;-71
2022/07/05 01:13:55;;;;;;;7.20;5.78;;;;;;;12.95;100.00;101940.91;5244409;28;20041;-71
2022/07/05 01:16:26;;;;;;;7.07;5.93;;;;;;;12.94;100.00;101944.53;5246790;28;20029;-71
2022/07/05 01:18:58;;;;;;;8.65;6.10;;;;;;;12.89;100.00;101938.66;5252403;28;20442;-71
2022/07/05 01:21:31;;;;;;;9.68;6.03;;;;;;;12.81;100.00;101943.66;5240729;28;20033;-71
2022/07/05 01:24:03;;;;;;;7.60;5.68;;;;;;;12.80;100.00;101958.03;5245948;28;20028;-71
2022/07/05 01:26:34;;;;;;;7.35;5.80;;;;;;;12.82;100.00;101951.59;5251736;28;20034;-70
2022/07/05 01:29:08;;;;;;;8.43;6.13;;;;;;;12.76;100.00;101954.69;5250294;28;20029;-71
2022/07/05 01:31:39;;;;;;;7.57;5.82;;;;;;;12.68;100.00;101944.50;5245057;28;20036;-71
2022/07/05 01:34:11;;;;;;;7.60;5.63;;;;;;;12.68;100.00;101949.84;5250238;28;20040;-71
2022/07/05 01:36:42;;;;;;;6.50;5.20;;;;;;;12.62;100.00;101947.59;5242438;28;20028;-71
2022/07/05 01:39:14;;;;;;;9.40;5.53;;;;;;;12.58;100.00;101947.88;5245555;28;20545;-71
2022/07/05 01:41:48;;;;;;;7.85;5.60;;;;;;;12.51;100.00;101950.97;5242577;28;20044;-71
2022/07/05 01:44:19;;;;;;;8.40;5.97;;;;;;;12.51;100.00;101947.47;5245391;28;20028;-72
2022/07/05 01:46:55;;;;;;;7.32;5.80;;;;;;;12.50;100.00;101949.28;5246136;28;20029;-70
2022/07/05 01:49:27;;;;;;;9.90;6.30;;;;;;;12.54;100.00;101950.78;5244493;28;20031;-71
2022/07/05 01:52:06;;;;;;;10.77;6.38;;;;;;;12.50;100.00;101951.97;5246878;28;20106;-71
2022/07/05 01:54:38;;;;;;;7.63;6.30;;;;;;;12.44;100.00;101946.16;5242251;28;20083;-72
2022/07/05 01:57:10;;;;;;;8.18;6.38;;;;;;;12.41;100.00;101946.38;5251092;28;20130;-71
2022/07/05 01:59:41;;;;;;;7.57;5.82;;;;;;;12.36;100.00;101943.97;5236999;28;20037;-70
2022/07/05 02:02:12;;;;;;;8.80;6.75;;;;;;;12.38;100.00;101949.25;5250442;28;20557;-71
2022/07/05 02:04:44;;;;;;;8.63;5.93;;;;;;;12.30;100.00;101945.25;5241641;28;20069;-71
2022/07/05 02:07:16;;;;;;;10.77;6.47;;;;;;;12.26;100.00;101938.38;5244679;28;20025;-71
2022/07/05 02:09:47;;;;;;;7.53;6.20;;;;;;;12.27;100.00;101941.91;5247000;28;20039;-71
2022/07/05 02:12:19;;;;;;;8.48;6.57;;;;;;;12.29;100.00;101937.31;5252669;28;20029;-71
2022/07/05 02:14:50;;;;;;;7.57;5.40;;;;;;;12.21;100.00;101929.78;5243292;28;20021;-71
2022/07/05 02:17:21;;;;;;;7.85;5.90;;;;;;;12.20;100.00;101928.09;5245529;28;20491;-71
2022/07/05 02:19:52;;;;;;;7.57;5.88;;;;;;;12.13;100.00;101932.97;5246965;28;20025;-71
2022/07/05 02:22:24;;;;;;;9.05;6.50;;;;;;;12.15;100.00;101938.22;5248193;28;20506;-71
2022/07/05 02:24:55;;;;;;;9.68;7.30;;;;;;;12.18;100.00;101938.03;5247515;28;20025;-71
2022/07/05 02:27:26;;;;;;;9.27;6.80;;;;;;;12.13;100.00;101937.47;5249628;28;20039;-71
2022/07/05 02:29:58;;;;;;;8.45;7.20;;;;;;;12.04;100.00;101932.72;5251229;28;20033;-71
2022/07/05 02:32:31;;;;;;;9.95;6.70;;;;;;;12.04;100.00;101940.75;5247871;28;20112;-71
2022/07/05 02:35:04;;;;;;;8.73;7.17;;;;;;;12.12;100.00;101933.09;5250260;28;20025;-71
2022/07/05 02:37:37;;;;;;;8.93;7.33;;;;;;;12.06;100.00;101942.38;5252004;28;20494;-71
2022/07/05 02:40:10;;;;;;;9.13;7.55;;;;;;;11.96;100.00;101944.78;5245821;28;20816;-71
2022/07/05 02:42:42;;;;;;;9.63;7.70;;;;;;;11.91;100.00;101938.88;5240261;28;20578;-71
2022/07/05 02:45:13;;;;;;;9.48;7.43;;;;;;;11.92;100.00;101940.59;5248942;28;20028;-71
2022/07/05 02:47:44;;;;;;;10.13;7.22;;;;;;;11.89;100.00;101946.16;5245225;28;20043;-72
2022/07/05 02:50:16;;;;;;;9.25;6.85;;;;;;;11.84;100.00;101953.56;5250208;28;20112;-71
2022/07/05 02:52:47;;;;;;;10.90;8.15;;;;;;;11.86;100.00;101948.13;5247367;28;20573;-70
2022/07/05 02:55:18;;;;;;;10.27;7.90;;;;;;;11.84;100.00;101940.19;5249825;28;20079;-71
2022/07/05 02:57:50;;;;;;;11.25;7.20;;;;;;;11.82;100.00;101949.28;5239130;28;20583;-71
2022/07/05 03:00:21;;;;;;;11.15;7.85;;;;;;;11.79;100.00;101953.00;5242928;28;20029;-71
2022/07/05 03:02:52;;;;;;;10.25;8.18;;;;;;;11.83;100.00;101954.53;5259006;28;20056;-71
2022/07/05 03:05:24;;;;;;;11.20;8.02;;;;;;;11.80;100.00;101956.53;5251001;28;20108;-72
2022/07/05 03:07:55;;;;;;;9.63;7.90;;;;;;;11.77;100.00;101957.56;5239602;28;20168;-71
2022/07/05 03:10:26;;;;;;;11.10;8.50;;;;;;;11.75;100.00;101954.16;5241944;28;20606;-70
2022/07/05 03:12:58;;;;;;;10.55;7.65;;;;;;;11.80;100.00;101964.56;5251925;28;20405;-71
2022/07/05 03:15:29;;;;;;;9.88;7.72;;;;;;;11.76;100.00;101964.75;5245341;28;20052;-70
2022/07/05 03:18:01;;;;;;;10.07;7.97;;;;;;;11.72;100.00;101960.56;5250768;28;20033;-71
2022/07/05 03:20:32;;;;;;;8.88;7.88;;;;;;;11.66;100.00;101965.41;5237413;28;20021;-71
2022/07/05 03:23:03;;;;;;;9.10;7.90;;;;;;;11.80;100.00;101964.56;5242725;28;20221;-71
2022/07/05 03:25:34;;;;;;;10.35;8.20;;;;;;;11.72;100.00;101973.94;5248774;28;20040;-72
2022/07/05 03:28:06;;;;;;;12.20;7.93;;;;;;;11.73;100.00;101969.44;5238931;28;20029;-71
2022/07/05 03:30:37;;;;;;;12.40;8.73;;;;;;;11.68;100.00;101972.41;5236991;28;20036;-71
2022/07/05 03:33:08;;;;;;;13.40;9.10;;;;;;;11.63;100.00;101970.97;5242575;28;20025;-71
2022/07/05 03:35:40;;;;;;;11.00;8.48;;;;;;;11.76;100.00;101969.25;5244410;28;20033;-71
2022/07/05 03:38:11;;;;;;;11.18;8.18;;;;;;;11.65;100.00;101979.75;5251765;28;20472;-70
2022/07/05 03:40:42;;;;;;;11.35;8.43;;;;;;;11.58;100.00;101973.91;5246379;28;20025;-71
2022/07/05 03:43:14;;;;;;;11.35;8.65;;;;;;;11.54;100.00;101975.94;5249163;28;20123;-71
2022/07/05 03:45:45;;;;;;;13.52;8.63;;;;;;;11.55;100.00;101977.66;5241016;28;20057;-71
2022/07/05 03:48:16;;;;;;;10.85;8.50;;;;;;;11.57;100.00;101980.25;5241517;28;20025;-71
2022/07/05 03:50:48;;;;;;;13.10;9.50;;;;;;;11.61;100.00;101981.75;5236319;28;20112;-71
2022/07/05 03:53:19;;;;;;;14.20;8.52;;;;;;;11.69;100.00;101975.94;5250234;28;20089;-70
2022/07/05 03:55:50;;;;;;;12.57;9.05;;;;;;;11.69;100.00;101978.59;5243654;28;20091;-71
2022/07/05 03:58:22;;;;;;;11.27;9.80;;;;;;;11.73;100.00;101985.47;5248760;28;20067;-71
2022/07/05 04:00:53;;;;;;;9.50;8.50;;;;;;;11.80;100.00;101988.63;5249997;28;20025;-71
2022/07/05 04:03:24;;;;;;;12.27;8.27;;;;;;;11.83;100.00;101991.97;5247177;28;20488;-71
2022/07/05 04:05:55;;;;;;;11.80;8.30;;;;;;;11.93;100.00;101989.59;5246457;28;20029;-71
2022/07/05 04:08:27;;;;;;;12.38;9.23;;;;;;;11.97;100.00;101991.13;5246772;28;20067;-71
2022/07/05 04:10:58;;;;;;;13.15;9.77;;;;;;;11.96;100.00;101992.91;5250679;28;20036;-71
2022/07/05 04:13:29;;;;;;;13.40;10.35;;;;;;;12.05;100.00;101994.16;5241770;28;20033;-71
2022/07/05 04:16:01;;;;;;;15.85;10.38;;;;;;;12.11;100.00;101992.91;5247239;28;20024;-71
2022/07/05 04:18:33;;;;;;;15.40;10.02;;;;;;;12.13;100.00;101999.00;5249405;28;20025;-71
2022/07/05 04:21:05;;;;;;;11.50;9.77;;;;;;;12.19;100.00;102001.28;5248870;28;20106;-71
2022/07/05 04:23:36;;;;;;;15.10;9.85;;;;;;;12.25;100.00;102000.03;5248277;28;20018;-70
2022/07/05 04:26:08;;;;;;;13.93;10.55;;;;;;;12.31;100.00;102002.28;5247915;28;20039;-71
2022/07/05 04:28:39;;;;;;;14.07;10.30;;;;;;;12.39;100.00;101999.13;5249961;28;20031;-71
2022/07/05 04:31:10;;;;;;;15.55;11.45;;;;;;;12.47;100.00;101996.81;5252131;28;20029;-71
2022/07/05 04:33:41;;;;;;;14.60;12.52;;;;;;;12.53;100.00;102007.97;5243900;28;20022;-71
2022/07/05 04:36:13;;;;;;;13.70;10.32;;;;;;;12.60;100.00;102000.41;5249353;28;20033;-71
2022/07/05 04:38:44;;;;;;;12.38;11.07;;;;;;;12.76;100.00;102000.22;5234630;28;20033;-71
2022/07/05 04:41:15;;;;;;;13.13;11.30;;;;;;;12.74;100.00;101997.63;5247363;28;20017;-71
2022/07/05 04:43:47;;;;;;;14.70;12.02;;;;;;;12.90;100.00;102005.47;5240998;28;20043;-71
2022/07/05 04:46:18;;;;;;;15.27;12.32;;;;;;;12.97;100.00;101997.06;5241645;28;20475;-71
2022/07/05 04:48:49;;;;;;;14.80;11.60;;;;;;;13.03;100.00;102002.00;5242396;28;20501;-70
2022/07/05 04:51:21;;;;;;;13.25;11.18;;;;;;;13.10;100.00;102005.97;5250918;28;20041;-70
2022/07/05 04:53:52;;;;;;;14.38;11.25;;;;;;;13.21;100.00;101991.81;5239535;28;20473;-71
2022/07/05 04:56:23;;;;;;;14.95;11.40;;;;;;;13.30;100.00;101985.84;5239363;28;20499;-71
2022/07/05 04:58:55;;;;;;;13.95;10.77;;;;;;;13.36;100.00;101995.28;5258644;28;20054;-71
2022/07/05 05:01:26;;;;;;;12.20;10.90;;;;;;;13.55;100.00;101992.19;5245601;28;20028;-71
2022/07/05 05:03:57;;;;;;;14.00;11.15;;;;;;;13.69;100.00;102002.75;5240197;28;20409;-72
2022/07/05 05:06:28;;;;;;;13.30;10.23;;;;;;;13.69;100.00;101995.59;5243946;28;20025;-71
2022/07/05 05:09:00;;;;;;;14.02;10.63;;;;;;;13.83;100.00;101994.59;5243474;28;20028;-71
2022/07/05 05:11:31;;;;;;;12.13;9.80;;;;;;;13.92;100.00;101990.38;5251780;28;20098;-71
2022/07/05 05:14:02;;;;;;;12.45;10.10;;;;;;;13.98;100.00;101994.44;5239382;28;20514;-71
2022/07/05 05:16:34;;;;;;;12.15;9.82;;;;;;;14.10;100.00;101998.94;5242243;28;20613;-71
2022/07/05 05:19:05;;;;;;;12.10;9.93;;;;;;;14.30;100.00;101998.34;5244808;28;20032;-71
2022/07/05 05:21:36;;;;;;;13.30;9.88;;;;;;;14.40;100.00;102003.88;5244721;28;20039;-71
2022/07/05 05:24:07;;;;;;;17.42;9.98;;;;;;;14.54;100.00;102002.00;5238321;28;20103;-71
2022/07/05 05:26:39;;;;;;;10.60;9.23;;;;;;;14.59;99.53;102008.75;5243002;28;20040;-71
2022/07/05 05:29:10;;;;;;;10.43;9.35;;;;;;;14.75;100.00;102018.38;5239261;28;20036;-71
2022/07/05 05:31:41;;;;;;;12.02;8.90;;;;;;;14.86;98.06;102011.19;5236123;28;20026;-71
2022/07/05 05:34:13;;;;;;;13.50;9.75;;;;;;;14.94;97.08;102020.47;5244307;28;20025;-70
2022/07/05 05:36:44;;;;;;;11.50;8.98;;;;;;;15.06;96.78;102019.56;5243009;28;20459;-70
2022/07/05 05:39:15;;;;;;;11.27;8.95;;;;;;;15.10;96.22;102029.09;5251297;28;20036;-71
2022/07/05 05:41:46;;;;;;;11.65;9.15;;;;;;;15.17;95.59;102032.16;5243725;28;20112;-70
2022/07/05 05:44:18;;;;;;;10.25;8.50;;;;;;;15.27;94.84;102028.66;5237037;28;20025;-71
2022/07/05 05:46:49;;;;;;;12.50;8.40;;;;;;;15.40;93.88;102038.47;5240796;28;20033;-70
2022/07/05 05:49:20;;;;;;;12.85;9.27;;;;;;;15.48;94.53;102036.03;5242398;28;20028;-70
2022/07/05 05:51:51;;;;;;;11.60;9.38;;;;;;;15.51;93.91;102040.31;5243079;28;20463;-71
2022/07/05 05:54:23;;;;;;;13.68;9.48;;;;;;;15.49;91.76;102035.91;5234135;28;20482;-70
2022/07/05 05:56:54;;;;;;;13.27;9.65;;;;;;;15.56;92.06;102043.50;5248877;28;20265;-71
2022/07/05 05:59:25;;;;;;;11.38;9.52;;;;;;;15.65;92.38;102035.56;5238360;28;20025;-71
2022/07/05 06:01:56;;;;;;;9.98;8.98;;;;;;;15.80;92.59;102044.28;5247484;28;20032;-71
2022/07/05 06:04:28;;;;;;;12.73;9.00;;;;;;;15.81;91.57;102039.75;5252627;28;20024;-71
2022/07/05 06:06:59;;;;;;;14.02;10.15;;;;;;;16.01;91.88;102048.91;5248456;28;20032;-71
2022/07/05 06:09:30;;;;;;;11.40;9.27;;;;;;;16.09;92.11;102046.47;5243851;28;20561;-71
2022/07/05 06:12:02;;;;;;;13.98;9.38;;;;;;;16.17;90.60;102043.16;5243312;28;20025;-71
2022/07/05 06:14:33;;;;;;;11.43;9.75;;;;;;;16.21;89.16;102045.47;5249085;28;20025;-70
2022/07/05 06:17:04;;;;;;;13.32;9.45;;;;;;;16.31;89.90;102044.72;5248668;28;20379;-70
2022/07/05 06:19:36;;;;;;;11.70;9.25;;;;;;;16.43;88.66;102051.78;5243423;28;20390;-71
2022/07/05 06:22:07;;;;;;;11.43;9.55;;;;;;;16.58;87.40;102057.75;5249432;28;20029;-70
2022/07/05 06:24:38;;;;;;;12.85;9.77;;;;;;;16.76;88.83;102058.94;5247609;28;20108;-71
2022/07/05 06:27:09;;;;;;;10.85;9.73;;;;;;;16.73;87.22;102061.03;5244890;28;20044;-71
2022/07/05 06:29:41;;;;;;;11.85;9.75;;;;;;;16.84;86.76;102059.16;5241829;28;20029;-70
2022/07/05 06:32:12;;;;;;;12.75;9.43;;;;;;;16.97;86.45;102063.50;5249990;28;20087;-71
2022/07/05 06:34:43;;;;;;;11.25;8.75;;;;;;;17.11;86.04;102070.47;5245188;28;20037;-70
2022/07/05 06:37:15;;;;;;;13.18;9.55;;;;;;;17.20;84.41;102069.66;5245219;28;20100;-71
2022/07/05 06:39:46;;;;;;;12.07;9.57;;;;;;;17.29;86.51;102065.31;5245018;28;20022;-71
2022/07/05 06:42:17;;;;;;;11.07;8.55;;;;;;;17.38;83.84;102062.69;5248146;28;20390;-71
2022/07/05 06:44:48;;;;;;;12.77;8.63;;;;;;;17.52;83.63;102071.44;5247658;28;20105;-70
2022/07/05 06:47:20;;;;;;;11.95;8.57;;;;;;;17.65;83.70;102066.69;5240125;28;20033;-70
2022/07/05 06:49:51;;;;;;;10.02;8.13;;;;;;;17.70;80.74;102067.16;5242529;28;20041;-71
2022/07/05 06:52:23;;;;;;;12.93;8.77;;;;;;;17.91;82.34;102074.38;5264745;28;20041;-71
2022/07/05 06:54:54;;;;;;;11.18;8.15;;;;;;;17.99;80.18;102071.88;5244306;28;20112;-70
2022/07/05 06:57:25;;;;;;;9.52;8.27;;;;;;;17.88;82.62;102074.66;5248062;28;20099;-70
2022/07/05 06:59:57;;;;;;;9.13;7.75;;;;;;;17.74;80.99;102074.00;5251763;28;20033;-70
2022/07/05 07:02:28;;;;;;;9.93;8.02;;;;;;;17.70;82.27;102074.38;5250024;28;20033;-71
2022/07/05 07:04:59;;;;;;;11.82;7.38;;;;;;;17.68;82.42;102074.53;5241230;28;20033;-71
2022/07/05 07:10:22;;;;;;;10.88;7.90;;;;;;;18.03;82.42;102073.28;5244978;28;20048;-70
2022/07/05 07:12:53;;;;;;;9.60;7.38;;;;;;;18.29;82.18;102073.66;5249226;28;20048;-71
2022/07/05 07:15:24;;;;;;;8.43;5.93;;;;;;;18.37;80.65;102078.34;5244171;28;20033;-70
2022/07/05 07:17:56;;;;;;;9.05;5.80;;;;;;;18.70;81.59;102076.31;5249512;28;20033;-71
2022/07/05 07:20:27;;;;;;;9.90;7.35;;;;;;;18.97;79.61;102073.78;5240843;28;20553;-71
2022/07/05 07:22:59;;;;;;;9.40;6.78;;;;;;;19.07;79.99;102072.94;5249384;28;20067;-70
2022/07/05 07:25:30;;;;;;;8.00;6.05;;;;;;;19.31;80.32;102080.59;5245020;28;20025;-70
2022/07/05 07:28:01;;;;;;;10.07;6.28;;;;;;;19.39;77.57;102078.88;5248979;28;20060;-70
2022/07/05 07:30:32;;;;;;;11.05;6.43;;;;;;;19.39;77.64;102084.28;5237145;28;20470;-71
2022/07/05 07:33:04;;;;;;;11.23;6.20;;;;;;;19.46;77.72;102078.28;5252447;28;20028;-71
2022/07/05 07:35:35;;;;;;;11.77;5.70;;;;;;;19.56;76.75;102079.97;5237847;28;20032;-71
2022/07/05 07:38:06;;;;;;;9.65;5.55;;;;;;;19.62;77.57;102083.09;5248792;28;20032;-72
2022/07/05 07:40:38;;;;;;;11.43;5.68;;;;;;;19.76;77.68;102090.78;5236896;28;20608;-71
2022/07/05 07:43:09;;;;;;;10.82;5.75;;;;;;;19.85;78.46;102094.44;5240064;28;20021;-71
2022/07/05 07:45:40;;;;;;;9.40;4.93;;;;;;;19.98;76.32;102093.13;5237251;28;20380;-71
2022/07/05 07:48:11;;;;;;;11.63;5.60;;;;;;;20.00;78.32;102095.72;5250354;28;20059;-71
2022/07/05 07:50:43;;;;;;;12.43;5.45;;;;;;;20.13;77.78;102088.06;5237931;28;20025;-71
2022/07/05 07:53:14;;;;;;;11.52;5.80;;;;;;;20.42;75.15;102086.22;5243625;28;20257;-71
2022/07/05 07:55:45;;;;;;;10.32;5.18;;;;;;;20.47;76.40;102089.31;5239484;28;20032;-70
2022/07/05 07:58:17;;;;;;;10.13;5.55;;;;;;;20.43;75.92;102093.34;5203231;28;1027185;-71
2022/07/05 08:00:48;;;;;;;12.45;5.03;;;;;;;20.68;76.99;102091.78;5241038;28;20038;-71
2022/07/05 08:03:19;;;;;;;10.73;5.15;;;;;;;20.81;74.60;102096.84;5248537;28;20373;-71
2022/07/05 08:05:50;;;;;;;12.13;4.80;;;;;;;20.83;73.17;102094.84;5249501;28;20396;-71
2022/07/05 08:08:22;;;;;;;9.95;4.97;;;;;;;20.94;75.34;102098.16;5240002;28;20435;-71
2022/07/05 08:10:53;;;;;;;13.20;6.50;;;;;;;20.94;73.09;102100.00;5247879;28;20450;-71
2022/07/05 08:13:24;;;;;;;13.43;6.93;;;;;;;21.09;73.21;102100.31;5246528;28;20463;-71
2022/07/05 08:15:56;;;;;;;11.32;6.60;;;;;;;21.07;72.41;102097.75;5246109;28;20025;-71
2022/07/05 08:21:39;;;;;;;11.23;7.15;;;;;;;21.18;71.11;102104.81;5251901;28;20064;-71
2022/07/05 08:24:14;;;;;;;12.90;7.20;;;;;;;21.28;71.99;102110.16;5249973;28;20035;-72
2022/07/05 08:26:46;;;;;;;14.05;7.70;;;;;;;21.36;73.87;102104.78;5244682;28;20037;-72
2022/07/05 08:29:17;;;;;;;16.65;7.35;;;;;;;21.34;70.34;102104.97;5244923;28;20044;-71
2022/07/05 08:31:50;;;;;;;12.18;7.60;;;;;;;21.46;71.61;102104.75;5240414;28;20025;-71
2022/07/05 08:34:21;;;;;;;16.65;8.00;;;;;;;21.28;70.04;102110.16;5243422;28;20426;-71
2022/07/05 08:36:53;;;;;;;14.38;8.20;;;;;;;21.44;71.58;102101.31;5248881;28;20029;-72
2022/07/05 08:39:24;;;;;;;12.00;7.45;;;;;;;21.24;69.14;102103.34;5248469;28;20024;-72
2022/07/05 08:41:57;;;;;;;11.25;7.00;;;;;;;21.51;71.51;102095.06;5240887;28;20052;-72
2022/07/05 08:44:33;;;;;;;10.38;7.78;;;;;;;21.27;68.57;102100.31;5246546;28;20037;-71
2022/07/05 08:47:09;;;;;;;14.05;7.00;;;;;;;21.57;72.24;102098.19;5242659;28;20021;-72
2022/07/05 08:49:40;;;;;;;10.88;6.80;;;;;;;21.19;67.63;102094.78;5245818;28;20017;-71
2022/07/05 08:52:12;;;;;;;11.10;6.53;;;;;;;21.26;69.08;102096.72;5239134;28;20025;-71
2022/07/05 08:54:46;;;;;;;11.00;7.05;;;;;;;21.02;69.35;102096.53;5242446;28;20109;-71
2022/07/05 08:57:17;;;;;;;12.85;6.75;;;;;;;20.88;68.42;102093.38;5247867;28;20082;-71
2022/07/05 08:59:48;;;;;;;12.30;6.68;;;;;;;20.92;70.86;102099.31;5246770;28;20036;-71
2022/07/05 09:02:20;;;;;;;9.77;6.43;;;;;;;21.04;71.36;102094.53;5263555;28;20089;-71
2022/07/05 09:04:54;;;;;;;10.52;5.47;;;;;;;20.91;67.18;102094.91;5247536;28;20285;-71
2022/07/05 09:07:29;;;;;;;9.60;5.20;;;;;;;21.26;68.68;102096.72;5237947;28;20040;-71
2022/07/05 09:10:02;;;;;;;10.02;5.03;;;;;;;21.28;65.89;102102.84;5244390;28;20036;-72
2022/07/05 09:12:34;;;;;;;7.85;4.78;;;;;;;21.45;63.82;102103.88;5247686;28;20027;-71
2022/07/05 09:15:06;;;;;;;9.02;4.47;;;;;;;21.48;64.02;102105.44;5237471;28;20021;-72
2022/07/05 09:17:47;;;;;;;8.55;4.35;;;;;;;21.70;65.36;102104.03;5241241;28;20043;-72
2022/07/05 09:20:19;;;;;;;9.13;4.68;;;;;;;21.86;63.92;102109.59;5243082;28;20383;-71
2022/07/05 09:22:53;;;;;;;11.75;5.75;;;;;;;21.77;63.75;102104.28;5245772;28;20045;-72
2022/07/05 09:25:27;;;;;;;9.48;5.10;;;;;;;21.80;63.21;102102.06;5234902;28;20052;-71
2022/07/05 09:28:00;;;;;;;7.93;3.90;;;;;;;21.58;59.29;102108.88;5244239;28;20522;-71
2022/07/05 09:30:38;;;;;;;8.88;3.60;;;;;;;21.32;57.91;102106.09;5234577;28;20487;-71
2022/07/05 09:33:15;;;;;;;10.02;3.95;;;;;;;21.31;61.87;102101.69;5246230;28;20037;-71
2022/07/05 09:36:01;;;;;;;7.70;3.95;;;;;;;21.47;63.53;102110.00;5245043;28;20064;-71
2022/07/05 09:38:33;;;;;;;7.68;4.82;;;;;;;21.78;63.75;102093.22;5239173;28;20079;-71
2022/07/05 09:41:11;;;;;;;7.63;4.63;;;;;;;21.92;63.06;102099.94;5238911;28;20052;-71
2022/07/05 09:43:42;;;;;;;9.57;4.80;;;;;;;22.07;63.28;102094.72;5248595;28;20037;-71
2022/07/05 09:46:13;;;;;;;7.80;4.57;;;;;;;22.11;62.20;102087.94;5245097;28;20456;-71
2022/07/05 09:48:52;;;;;;;9.35;4.18;;;;;;;22.36;62.09;102091.66;5246691;28;20156;-72
2022/07/05 09:51:24;;;;;;;7.60;3.95;;;;;;;22.49;54.04;102089.34;5244703;28;20514;-71
2022/07/05 09:53:58;;;;;;;6.93;4.15;;;;;;;22.17;54.66;102094.59;5242066;28;20029;-72
2022/07/05 09:56:29;;;;;;;7.95;3.28;;;;;;;22.33;55.46;102083.84;5244043;28;20036;-71
2022/07/05 09:59:19;;;;;;;4.85;2.95;;;;;;;22.57;58.99;102082.19;5244894;28;20049;-72
2022/07/05 10:01:51;;;;;;;8.27;3.05;;;;;;;22.42;56.02;102088.28;5246809;28;20028;-72
2022/07/05 10:04:23;;;;;;;5.57;3.03;;;;;;;22.20;53.02;102083.41;5239941;28;20063;-73
2022/07/05 10:06:55;;;;;;;6.55;3.20;;;;;;;21.99;53.22;102089.25;5244255;28;20032;-72
2022/07/05 10:09:27;;;;;;;7.00;2.92;;;;;;;21.76;53.49;102088.97;5238881;28;20029;-71
2022/07/05 10:11:58;;;;;;;5.95;2.78;;;;;;;21.52;53.56;102085.09;5250685;28;20025;-71
2022/07/05 10:14:30;;;;;;;8.10;3.90;;;;;;;21.39;54.89;102079.19;5243889;28;20040;-71
2022/07/05 10:17:02;;;;;;;7.03;3.40;;;;;;;21.64;56.27;102093.81;5244640;28;20029;-71
2022/07/05 10:19:40;;;;;;;6.63;2.92;;;;;;;21.62;55.79;102099.41;5245703;28;20040;-72
2022/07/05 10:22:13;;;;;;;6.13;3.45;;;;;;;21.61;57.10;102096.84;5242929;28;20029;-72
2022/07/05 10:24:44;;;;;;;8.43;4.18;;;;;;;21.58;57.00;102095.31;5233902;28;20047;-72
2022/07/05 10:27:17;;;;;;;7.70;4.50;;;;;;;21.68;56.93;102100.63;5243306;28;20025;-72
2022/07/05 10:29:50;;;;;;;6.25;3.70;;;;;;;21.79;53.24;102088.66;5242436;28;20934;-72
2022/07/05 10:32:23;;;;;;;6.72;4.35;;;;;;;22.01;54.64;102089.94;5243003;28;20031;-71
2022/07/05 10:34:57;;;;;;;8.07;3.90;;;;;;;21.93;54.63;102088.88;5238762;28;20659;-72
2022/07/05 10:37:30;;;;;;;8.85;3.42;;;;;;;22.09;55.95;102098.13;5238798;28;20441;-71
2022/07/05 10:40:04;;;;;;;7.97;2.45;;;;;;;21.96;52.58;102097.72;5243222;28;20029;-71
2022/07/05 10:42:41;;;;;;;4.70;2.20;;;;;;;22.04;56.06;102086.91;5242733;28;20048;-71
2022/07/05 10:45:25;;;;;;;7.85;3.20;;;;;;;21.77;52.38;102088.81;5258723;28;20158;-72
2022/07/05 10:48:22;;;;;;;5.55;2.70;;;;;;;21.79;53.89;102085.94;5242778;28;20113;-72
2022/07/05 10:50:56;;;;;;;6.82;2.80;;;;;;;21.82;55.35;102088.31;5245158;28;20059;-71
2022/07/05 10:53:37;;;;;;;5.55;2.92;;;;;;;21.82;54.63;102082.88;5248739;28;20028;-72
2022/07/05 10:56:08;;;;;;;7.13;2.58;;;;;;;21.77;52.30;102087.97;5242442;28;20025;-72
2022/07/05 10:58:42;;;;;;;6.03;2.60;;;;;;;22.07;51.75;102079.28;5242914;28;20514;-71
2022/07/05 11:01:19;;;;;;;6.22;2.60;;;;;;;22.17;51.08;102081.00;5246164;28;20287;-71
2022/07/05 11:04:05;;;;;;;8.50;2.78;;;;;;;22.08;52.38;102091.00;5244106;28;20532;-71
2022/07/05 11:06:43;;;;;;;4.47;2.03;;;;;;;22.05;49.89;102100.34;5241381;28;20095;-71
2022/07/05 11:09:18;;;;;;;4.03;1.90;;;;;;;21.88;48.25;102101.25;5241056;28;20025;-72
2022/07/05 11:11:52;;;;;;;4.70;2.10;;;;;;;21.74;49.89;102098.13;5246910;28;20033;-71
2022/07/05 11:14:25;;;;;;;3.47;1.70;;;;;;;21.92;51.68;102098.06;5240600;28;20053;-72
2022/07/05 11:17:11;;;;;;;5.18;1.83;;;;;;;21.88;50.88;102099.41;5249758;28;20471;-71
2022/07/05 11:20:01;;;;;;;14.35;3.10;;;;;;;22.00;53.04;102107.28;5247201;28;20029;-71
2022/07/05 11:22:38;;;;;;;5.13;1.60;;;;;;;21.60;51.08;102106.03;5250478;28;20116;-71
2022/07/05 11:25:10;;;;;;;6.07;1.90;;;;;;;21.65;52.59;102096.38;5251130;28;20033;-71
2022/07/05 11:28:05;;;;;;;5.25;1.75;;;;;;;21.67;52.94;102099.78;5244443;28;20318;-71
2022/07/05 11:30:59;;;;;;;3.92;1.80;;;;;;;21.63;53.35;102095.69;5244079;28;20033;-71
2022/07/05 11:33:38;;;;;;;6.57;2.17;;;;;;;21.61;53.57;102095.00;5239051;28;20037;-71
2022/07/05 11:36:26;;;;;;;4.00;1.70;;;;;;;21.69;54.38;102095.06;5246219;28;20071;-72
2022/07/05 11:39:12;;;;;;;8.23;2.20;;;;;;;21.63;53.57;102101.13;5253815;28;20031;-71
2022/07/05 11:41:45;;;;;;;7.15;2.10;;;;;;;21.57;54.19;102100.91;5244795;28;20467;-72
2022/07/05 11:44:17;;;;;;;5.22;1.63;;;;;;;21.86;55.68;102103.28;5251520;28;20028;-71
2022/07/05 11:46:49;;;;;;;6.03;1.83;;;;;;;21.96;55.44;102101.31;5242936;28;20510;-71